KFHU

Sierra Vista Municipal-Libby AAF Airport

Fort Huachuca Sierra Vista, Arizona, USA
METAR KFHU 230958Z AUTO 00000KT 10SM CLR 01/M05 A3011 RMK AO2 SLP177 T00131050
Observed Flight Rules
Feb-23 @ 09:58 UTC (32 minutes ago) Visual Flight Rules
Wind Visibility Clouds
Calm 10 miles
  • Clear skies
Temperatures Readings
Current 1°C / 34°F
Dewpoint -5°C / 23°F
Humidity 65%
Altimeter 30.11" Hg
Pressure 1017.7 hPa
Elevation 1438
METAR KFHU 230958Z AUTO 00000KT 10SM CLR 01/M05 A3011 RMK AO2 SLP177 T00131050
Observed Flight Rules
Feb-23 @ 09:58 UTC
(32 minutes ago)
VFR
Wind Visibility
Calm 10 miles
Clouds
  • Clear skies
Temperature Dewpoint
1°C / 34°F -5°C / 23°F
Humidity Altimeter Pressure
65% 30.11" Hg 1017.7 hPa